Perisher Valley Daily Summaries

July 2020
icon icon icon icon
Date Min to 9am Anomaly Max from 9am Anomaly Rain to 9am  
°C °C °C °C mm
Wed 01/07/2020 -1.1 - 5.5 - 1.4  
Thu 02/07/2020 0.5 - 0.6 - 25.4  
Fri 03/07/2020 -2.6 - -1.4 - 8.4  
Sat 04/07/2020 -5.9 - 1.1 - 12.6  
Sun 05/07/2020 -3.5 - 5.2 - 0.0  
Mon 06/07/2020 -6.5 - 6.7 - 0.0  
Tue 07/07/2020 -5.3 - 5.4 - 0.0  
Wed 08/07/2020 -7.2 - 4.6 - 0.0  
Thu 09/07/2020 -5.5 - 8.0 - 0.0  
Fri 10/07/2020 -4.6 - 3.9 - 0.0  
Sat 11/07/2020 -1.7 - 4.7 - 0.0  
Sun 12/07/2020 -2.6 - 0.3 - 0.8  
Mon 13/07/2020 -2.0 - 0.9 - 75.2  
Tue 14/07/2020 -1.7 - 1.2 - 20.2  
Wed 15/07/2020 -2.7 - 0.8 - 0.0  
Thu 16/07/2020 -4.4 - 1.4 - 0.6  
Fri 17/07/2020 -7.8 - 6.8 - 0.8  
Sat 18/07/2020 -7.0 - 7.3 - 1.2  
Sun 19/07/2020 -0.7 - 1.5 - 1.4  
Mon 20/07/2020 -3.7 - 0.6 - 10.2  
Tue 21/07/2020 -5.2 - 5.4 - 0.0  
Wed 22/07/2020 -3.8 - 5.9 - 0.0  
Thu 23/07/2020 -6.8 - 7.1 - 0.0  
Fri 24/07/2020 -5.4 - 5.9 - 0.0  
Sat 25/07/2020 -5.1 - 9.2 - 0.0  
Sun 26/07/2020 0.1 - 3.1 - 7.6  
Mon 27/07/2020 1.3 - 2.4 - 24.8  
Tue 28/07/2020 0.7 - 3.5 - 36.0  
Wed 29/07/2020 -2.1 - 6.5 - 1.8  
Thu 30/07/2020 -3.3 - 5.5 - 0.0  
Fri 31/07/2020 -7.2 - 8.8 - 0.0  
 
July 2020 Average -3.6   4.1      
 
July 2020 Total         228.4 16 day(s)
 
Jan-Jul 2020 Total         1270.8 96 day(s)
 
Highlights the coolest minimum or maximum temperature during the period.
 
Highlights the warmest minimum or maximum temperature during the period.
 
Highlights the highest daily rainfall during the period.
10  
A yellow cell indicates a probable monthly record for this site (sites with ≥ 10 years of records only). The number of years of records available for the relevant field for this month is indicated in black. See the station's climate page for full details.

Station Details

PERISHER VALLEY AWS
Snowy Mountains, New South Wales ACT
36.4069°S 148.4055°E 1738m AMSL
Commenced 2010
Display Your Local Weather

Weather News

Sydney surfer dies after slamming into storm water drain, wild weather forces evacuations on NSW South Coast

17:22 EST

A surfer has died after being slammed into a storm water drain at Collaroy on Sydney's northern beaches.

Flooding in Nowra as big waves pound NSW coastline

14:22 EST

Rain, flooding, damaging winds and damaging surf are all occurring in eastern NSW today as a complex low pressure system spins over the Tasman Sea.